createdAt,value
2019-03-13T00:00:54.347Z,94930.95
2019-03-13T00:03:23.814Z,94928.50
2019-03-13T00:05:53.316Z,94931.59
2019-03-13T00:08:22.780Z,94924.98
2019-03-13T00:10:52.332Z,94925.46
2019-03-13T00:13:21.809Z,94920.14
2019-03-13T00:15:51.318Z,94925.52
2019-03-13T00:18:20.848Z,94920.22
2019-03-13T00:20:50.358Z,94916.27
2019-03-13T00:23:19.883Z,94923.06
2019-03-13T00:25:49.372Z,94923.55
2019-03-13T00:28:18.863Z,94929.20
2019-03-13T00:30:48.315Z,94923.88
2019-03-13T00:33:17.787Z,94916.41
2019-03-13T00:35:47.270Z,94917.55
2019-03-13T00:38:16.763Z,94912.64
2019-03-13T00:40:46.286Z,94908.23
2019-03-13T00:43:15.809Z,94909.17
2019-03-13T00:45:45.993Z,94907.32
2019-03-13T00:48:15.477Z,94906.70
2019-03-13T00:50:45.024Z,94905.44
2019-03-13T00:53:14.536Z,94899.15
2019-03-13T00:55:44.063Z,94900.38
2019-03-13T00:58:13.546Z,94896.50
2019-03-13T01:01:17.171Z,94884.51
2019-03-13T01:03:53.937Z,94891.78
2019-03-13T01:06:26.574Z,94889.77
2019-03-13T01:08:56.103Z,94883.61
2019-03-13T01:11:27.337Z,94881.78
2019-03-13T01:13:57.002Z,94887.97
2019-03-13T01:16:26.530Z,94887.85
2019-03-13T01:18:56.082Z,94885.15
2019-03-13T01:21:25.567Z,94886.02
2019-03-13T01:23:55.087Z,94888.48
2019-03-13T01:26:24.565Z,94884.05
2019-03-13T01:28:54.113Z,94887.13
2019-03-13T01:31:41.109Z,94885.70
2019-03-13T01:34:22.015Z,94885.08
2019-03-13T01:36:51.500Z,94881.89
2019-03-13T01:39:21.050Z,94880.50
2019-03-13T01:41:50.605Z,94878.89
2019-03-13T01:44:20.113Z,94871.33
2019-03-13T01:46:49.632Z,94874.39
2019-03-13T01:49:19.142Z,94868.73
2019-03-13T01:51:48.715Z,94865.53
2019-03-13T01:54:18.256Z,94862.27
2019-03-13T01:56:47.801Z,94859.02
2019-03-13T01:59:17.311Z,94869.63
2019-03-13T02:01:46.873Z,94868.53
2019-03-13T02:04:16.392Z,94868.59
2019-03-13T02:06:45.924Z,94869.68
2019-03-13T02:09:15.403Z,94870.66
2019-03-13T02:11:44.881Z,94870.39
2019-03-13T02:14:14.371Z,94877.05
2019-03-13T02:16:43.883Z,94869.91
2019-03-13T02:19:13.391Z,94869.09
2019-03-13T02:21:42.891Z,94864.73
2019-03-13T02:24:12.461Z,94866.69
2019-03-13T02:26:41.924Z,94867.26
2019-03-13T02:29:11.418Z,94865.63
2019-03-13T02:31:40.932Z,94867.88
2019-03-13T02:34:10.426Z,94873.31
2019-03-13T02:36:39.882Z,94881.07
2019-03-13T02:39:09.479Z,94884.80
2019-03-13T02:41:38.963Z,94888.55
2019-03-13T02:44:08.466Z,94894.67
2019-03-13T02:46:37.940Z,94895.60
2019-03-13T02:49:09.164Z,94889.84
2019-03-13T02:51:38.626Z,94888.41
2019-03-13T02:54:08.147Z,94890.98
2019-03-13T02:56:37.645Z,94889.50
2019-03-13T02:59:07.141Z,94889.14
2019-03-13T03:01:54.171Z,94898.81
2019-03-13T03:04:23.657Z,94897.99
2019-03-13T03:06:53.137Z,94890.17
2019-03-13T03:09:22.597Z,94892.68
2019-03-13T03:11:52.045Z,94893.33
2019-03-13T03:14:21.515Z,94890.94
2019-03-13T03:16:51.008Z,94895.01
2019-03-13T03:19:20.537Z,94899.16
2019-03-13T03:21:50.104Z,94889.65
2019-03-13T03:24:19.609Z,94897.13
2019-03-13T03:26:49.124Z,94898.16
2019-03-13T03:29:18.660Z,94888.14
2019-03-13T03:31:48.165Z,94888.55
2019-03-13T03:34:17.738Z,94899.58
2019-03-13T03:36:47.224Z,94899.44
2019-03-13T03:39:16.700Z,94891.18
2019-03-13T03:41:46.503Z,94889.91
2019-03-13T03:44:16.003Z,94897.71
2019-03-13T03:46:45.527Z,94899.34
2019-03-13T03:49:15.042Z,94898.78
2019-03-13T03:51:44.545Z,94901.37
2019-03-13T03:54:14.030Z,94895.63
2019-03-13T03:56:43.526Z,94902.81
2019-03-13T03:59:12.987Z,94906.89
2019-03-13T04:01:42.504Z,94905.60
2019-03-13T04:04:12.006Z,94904.98
2019-03-13T04:06:41.888Z,94906.28
2019-03-13T04:09:11.355Z,94896.17
2019-03-13T04:11:40.811Z,94893.95
2019-03-13T04:14:10.310Z,94897.52
2019-03-13T04:16:39.810Z,94894.50
2019-03-13T04:19:09.333Z,94900.72
2019-03-13T04:21:38.834Z,94905.86
2019-03-13T04:24:08.317Z,94908.59
2019-03-13T04:26:37.842Z,94908.00
2019-03-13T04:29:07.338Z,94909.94
2019-03-13T04:31:36.821Z,94907.34
2019-03-13T04:34:06.347Z,94913.00
2019-03-13T04:36:35.853Z,94907.10
2019-03-13T04:39:06.138Z,94907.78
2019-03-13T04:41:35.580Z,94913.97
2019-03-13T04:44:05.050Z,94916.59
2019-03-13T04:46:34.552Z,94919.95
2019-03-13T04:49:04.073Z,94924.04
2019-03-13T04:51:33.583Z,94925.37
2019-03-13T04:54:03.088Z,94928.30
2019-03-13T04:56:32.639Z,94921.82
2019-03-13T04:59:02.126Z,94919.87
2019-03-13T05:01:31.618Z,94919.09
2019-03-13T05:04:01.124Z,94916.69
2019-03-13T05:06:30.623Z,94918.80
2019-03-13T05:09:03.752Z,94918.64
2019-03-13T05:11:33.268Z,94924.75
2019-03-13T05:14:02.754Z,94917.98
2019-03-13T05:16:32.199Z,94909.02
2019-03-13T05:19:01.659Z,94907.02
2019-03-13T05:21:31.166Z,94903.03
2019-03-13T05:24:00.703Z,94902.44
2019-03-13T05:26:30.241Z,94911.50
2019-03-13T05:28:59.759Z,94912.36
2019-03-13T05:31:29.298Z,94910.84
2019-03-13T05:33:58.831Z,94914.30
2019-03-13T05:36:28.338Z,94911.79
2019-03-13T05:38:57.908Z,94915.83
2019-03-13T05:41:27.415Z,94920.28
2019-03-13T05:43:56.920Z,94916.10
2019-03-13T05:46:26.435Z,94918.69
2019-03-13T05:48:55.966Z,94916.09
2019-03-13T05:51:25.481Z,94916.35
2019-03-13T05:53:54.996Z,94918.36
2019-03-13T05:56:24.452Z,94925.80
2019-03-13T05:58:53.960Z,94924.36
2019-03-13T06:01:23.528Z,94916.77
2019-03-13T06:03:53.068Z,94927.61
2019-03-13T06:06:22.659Z,94930.20
2019-03-13T06:08:52.179Z,94930.46
2019-03-13T06:11:21.676Z,94942.61
2019-03-13T06:13:51.156Z,94948.79
2019-03-13T06:16:20.709Z,94950.80
2019-03-13T06:18:52.741Z,94966.73
2019-03-13T06:21:21.432Z,94967.77
2019-03-13T06:23:50.912Z,94962.95
2019-03-13T06:26:20.407Z,94965.91
2019-03-13T06:28:49.936Z,94955.91
2019-03-13T06:31:19.490Z,94960.11
2019-03-13T06:33:49.025Z,94960.42
2019-03-13T06:36:18.557Z,94952.57
2019-03-13T06:38:48.052Z,94949.34
2019-03-13T06:41:17.547Z,94950.67
2019-03-13T06:43:47.146Z,94952.48
2019-03-13T06:46:16.627Z,94950.73
2019-03-13T06:48:46.135Z,94945.87
2019-03-13T06:51:15.700Z,94938.72
2019-03-13T06:53:45.196Z,94934.66
2019-03-13T06:56:14.714Z,94931.93
2019-03-13T06:58:50.491Z,94932.91
2019-03-13T07:01:38.982Z,94929.00
2019-03-13T07:04:23.949Z,94934.86
2019-03-13T07:07:15.399Z,94933.23
2019-03-13T07:10:12.761Z,94937.09
2019-03-13T07:12:56.974Z,94945.39
2019-03-13T07:15:45.421Z,94952.02
2019-03-13T07:18:23.752Z,94948.77
2019-03-13T07:21:12.209Z,94944.92
2019-03-13T07:23:59.239Z,94943.98
2019-03-13T07:26:43.059Z,94941.09
2019-03-13T07:29:31.479Z,94949.05
2019-03-13T07:32:29.157Z,94945.00
2019-03-13T07:35:16.512Z,94944.03
2019-03-13T07:38:00.240Z,94927.99
2019-03-13T07:40:39.254Z,94921.34
2019-03-13T07:43:39.800Z,94929.78
2019-03-13T07:46:31.276Z,94935.61
2019-03-13T07:49:14.785Z,94921.17
2019-03-13T07:52:02.138Z,94907.86
2019-03-13T07:54:39.900Z,94908.36
2019-03-13T07:57:14.817Z,94923.47
2019-03-13T08:00:09.285Z,94932.70
2019-03-13T08:02:48.018Z,94928.98
2019-03-13T08:05:26.677Z,94913.23
2019-03-13T08:08:30.336Z,94918.41
2019-03-13T08:11:07.683Z,94914.53
2019-03-13T08:14:01.193Z,94917.38
2019-03-13T08:16:42.924Z,94907.88
2019-03-13T08:19:26.112Z,94906.25
2019-03-13T08:22:26.655Z,94893.61
2019-03-13T08:25:17.857Z,94895.09
2019-03-13T08:28:09.062Z,94894.31
2019-03-13T08:30:52.769Z,94887.84
2019-03-13T08:33:47.272Z,94885.23
2019-03-13T08:36:26.775Z,94888.18
2019-03-13T08:39:09.775Z,94889.81
2019-03-13T08:41:57.060Z,94882.22
2019-03-13T08:45:03.824Z,94877.00
2019-03-13T08:48:01.171Z,94877.72
2019-03-13T08:50:40.796Z,94867.41
2019-03-13T08:53:37.765Z,94863.00
2019-03-13T08:56:22.738Z,94864.13
2019-03-13T08:59:00.304Z,94853.93
2019-03-13T09:01:51.354Z,94859.25
2019-03-13T09:04:41.868Z,94859.80
2019-03-13T09:07:28.763Z,94852.80
2019-03-13T09:10:12.483Z,94854.13
2019-03-13T09:12:54.753Z,94850.92
2019-03-13T09:15:32.577Z,94846.92
2019-03-13T09:18:12.202Z,94840.09
2019-03-13T09:20:49.403Z,94838.28
2019-03-13T09:23:31.592Z,94840.35
2019-03-13T09:26:19.057Z,94840.73
2019-03-13T09:29:05.415Z,94837.03
2019-03-13T09:31:52.738Z,94833.06
2019-03-13T09:34:41.130Z,94834.22
2019-03-13T09:37:44.904Z,94840.01
2019-03-13T09:40:36.426Z,94836.73
2019-03-13T09:43:23.671Z,94830.34
2019-03-13T09:46:00.556Z,94829.62
2019-03-13T09:48:56.060Z,94830.21
2019-03-13T09:51:47.294Z,94822.62
2019-03-13T09:54:34.717Z,94822.77
2019-03-13T09:57:32.448Z,94832.75
2019-03-13T10:00:20.854Z,94834.71
2019-03-13T10:03:05.716Z,94840.08
2019-03-13T10:05:44.812Z,94836.73
2019-03-13T10:08:39.271Z,94836.34
2019-03-13T10:11:16.917Z,94828.60
2019-03-13T10:14:12.859Z,94825.94
2019-03-13T10:17:10.809Z,94832.83
2019-03-13T10:19:52.828Z,94821.62
2019-03-13T10:22:40.155Z,94829.14
2019-03-13T10:25:19.231Z,94828.96
2019-03-13T10:28:07.656Z,94827.47
2019-03-13T10:30:42.926Z,94826.23
2019-03-13T10:33:30.886Z,94829.41
2019-03-13T10:36:10.541Z,94823.64
2019-03-13T10:38:57.567Z,94814.49
2019-03-13T10:41:44.896Z,94811.61
2019-03-13T10:44:30.571Z,94808.16
2019-03-13T10:47:09.054Z,94806.44
2019-03-13T10:49:43.704Z,94810.56
2019-03-13T10:52:35.224Z,94815.94
2019-03-13T10:55:35.840Z,94809.62
2019-03-13T10:58:30.006Z,94792.67
2019-03-13T11:01:10.193Z,94790.00
2019-03-13T11:03:58.607Z,94785.27
2019-03-13T11:06:55.345Z,94784.52
2019-03-13T11:09:28.865Z,94776.47
2019-03-13T11:12:14.250Z,94779.08
2019-03-13T11:15:14.723Z,94774.53
2019-03-13T11:18:06.007Z,94767.91
2019-03-13T11:20:53.985Z,94765.78
2019-03-13T11:24:00.606Z,94751.75
2019-03-13T11:26:38.952Z,94753.09
2019-03-13T11:29:26.201Z,94744.56
2019-03-13T11:32:11.021Z,94748.62
2019-03-13T11:34:49.329Z,94733.63
2019-03-13T11:37:30.216Z,94727.99
2019-03-13T11:40:27.481Z,94722.70
2019-03-13T11:43:18.705Z,94719.26
2019-03-13T11:45:58.721Z,94715.44
2019-03-13T11:48:45.935Z,94716.33
2019-03-13T11:51:25.306Z,94728.27
2019-03-13T11:54:12.578Z,94706.77
2019-03-13T11:57:01.461Z,94709.41
2019-03-13T11:59:48.464Z,94709.38
2019-03-13T12:02:52.342Z,94699.27
2019-03-13T12:05:49.530Z,94704.42
2019-03-13T12:08:40.786Z,94708.77
2019-03-13T12:11:32.086Z,94698.55
2019-03-13T12:14:26.256Z,94697.45
2019-03-13T12:17:12.548Z,94692.59
2019-03-13T12:20:19.088Z,94680.93
2019-03-13T12:22:58.771Z,94691.66
2019-03-13T12:25:38.801Z,94684.35
2019-03-13T12:28:42.414Z,94691.86
2019-03-13T12:31:30.739Z,94692.33
2019-03-13T12:34:22.219Z,94689.08
2019-03-13T12:37:01.240Z,94696.41
2019-03-13T12:39:52.555Z,94684.05
2019-03-13T12:42:31.912Z,94691.61
2019-03-13T12:45:11.976Z,94688.94
2019-03-13T12:47:53.022Z,94678.16
2019-03-13T12:50:34.346Z,94686.41
2019-03-13T12:53:21.742Z,94675.84
2019-03-13T12:56:22.581Z,94674.23
2019-03-13T12:59:03.245Z,94669.23
2019-03-13T13:01:47.741Z,94666.31
2019-03-13T13:04:27.738Z,94679.19
2019-03-13T13:07:12.939Z,94686.11
2019-03-13T13:10:01.346Z,94684.14
2019-03-13T13:12:47.781Z,94670.98
2019-03-13T13:15:34.805Z,94679.81
2019-03-13T13:18:22.281Z,94677.25
2019-03-13T13:20:51.802Z,94680.13
2019-03-13T13:23:21.346Z,94680.14
2019-03-13T13:25:50.839Z,94674.55
2019-03-13T13:28:20.323Z,94672.36
2019-03-13T13:30:49.809Z,94671.11
2019-03-13T13:33:19.367Z,94668.16
2019-03-13T13:35:48.862Z,94671.59
2019-03-13T13:38:18.401Z,94666.54
2019-03-13T13:40:47.979Z,94669.41
2019-03-13T13:43:17.484Z,94666.86
2019-03-13T13:46:05.975Z,94658.37
2019-03-13T13:48:35.435Z,94657.37
2019-03-13T13:51:04.944Z,94660.58
2019-03-13T13:53:34.484Z,94652.91
2019-03-13T13:56:03.965Z,94652.69
2019-03-13T13:58:33.481Z,94652.08
2019-03-13T14:01:02.945Z,94655.36
2019-03-13T14:03:32.404Z,94653.69
2019-03-13T14:06:01.873Z,94647.17
2019-03-13T14:08:31.416Z,94655.50
2019-03-13T14:11:00.914Z,94651.22
2019-03-13T14:13:30.386Z,94647.82
2019-03-13T14:15:59.892Z,94641.88
2019-03-13T14:18:29.491Z,94639.86
2019-03-13T14:20:59.007Z,94640.17
2019-03-13T14:23:28.536Z,94640.58
2019-03-13T14:25:58.117Z,94642.86
2019-03-13T14:28:27.572Z,94639.62
2019-03-13T14:30:57.043Z,94634.23
2019-03-13T14:33:26.488Z,94639.53
2019-03-13T14:35:56.003Z,94631.94
2019-03-13T14:38:25.526Z,94627.19
2019-03-13T14:40:55.027Z,94629.16
2019-03-13T14:43:24.540Z,94635.81
2019-03-13T14:45:54.023Z,94632.48
2019-03-13T14:48:23.522Z,94635.05
2019-03-13T14:50:53.073Z,94627.36
2019-03-13T14:53:22.631Z,94629.20
2019-03-13T14:55:52.157Z,94625.46
2019-03-13T14:58:21.655Z,94616.91
2019-03-13T15:00:51.122Z,94619.52
2019-03-13T15:03:20.597Z,94624.11
2019-03-13T15:05:50.144Z,94632.12
2019-03-13T15:08:19.649Z,94630.09
2019-03-13T15:10:49.145Z,94625.23
2019-03-13T15:13:18.649Z,94625.64
2019-03-13T15:15:48.150Z,94623.02
2019-03-13T15:18:17.625Z,94622.58
2019-03-13T15:20:47.125Z,94628.29
2019-03-13T15:23:16.600Z,94624.41
2019-03-13T15:25:46.170Z,94626.85
2019-03-13T15:28:17.438Z,94617.28
2019-03-13T15:30:46.846Z,94626.81
2019-03-13T15:33:16.337Z,94619.92
2019-03-13T15:35:45.872Z,94619.73
2019-03-13T15:38:15.393Z,94631.97
2019-03-13T15:40:44.898Z,94626.73
2019-03-13T15:43:14.420Z,94628.16
2019-03-13T15:45:43.939Z,94625.55
2019-03-13T15:48:13.488Z,94616.62
2019-03-13T15:50:43.070Z,94617.84
2019-03-13T15:53:12.580Z,94634.69
2019-03-13T15:55:42.172Z,94628.30
2019-03-13T15:58:11.719Z,94626.05
2019-03-13T16:00:41.255Z,94630.31
2019-03-13T16:03:10.781Z,94625.53
2019-03-13T16:05:40.287Z,94627.95
2019-03-13T16:08:10.188Z,94623.05
2019-03-13T16:10:39.765Z,94623.70
2019-03-13T16:13:09.314Z,94622.76
2019-03-13T16:15:39.203Z,94622.69
2019-03-13T16:18:08.731Z,94630.66
2019-03-13T16:20:38.287Z,94620.79
2019-03-13T16:23:07.764Z,94617.48
2019-03-13T16:25:37.262Z,94611.31
2019-03-13T16:28:06.902Z,94622.33
2019-03-13T16:30:39.213Z,94622.74
2019-03-13T16:33:08.703Z,94623.17
2019-03-13T16:35:38.203Z,94626.65
2019-03-13T16:38:07.692Z,94615.69
2019-03-13T16:40:37.193Z,94617.80
2019-03-13T16:43:06.651Z,94620.09
2019-03-13T16:45:36.204Z,94625.44
2019-03-13T16:48:06.159Z,94621.88
2019-03-13T16:50:35.671Z,94619.13
2019-03-13T16:53:05.546Z,94615.98
2019-03-13T16:55:35.273Z,94612.45
2019-03-13T16:58:04.761Z,94610.38
2019-03-13T17:00:34.419Z,94612.48
2019-03-13T17:03:03.984Z,94614.91
2019-03-13T17:05:33.509Z,94605.42
2019-03-13T17:08:03.020Z,94614.23
2019-03-13T17:10:32.525Z,94611.27
2019-03-13T17:13:05.185Z,94610.31
2019-03-13T17:15:33.315Z,94594.44
2019-03-13T17:18:02.737Z,94614.28
2019-03-13T17:20:32.268Z,94609.07
2019-03-13T17:23:01.879Z,94611.72
2019-03-13T17:25:31.370Z,94613.52
2019-03-13T17:28:00.912Z,94618.56
2019-03-13T17:30:30.506Z,94610.92
2019-03-13T17:33:00.359Z,94614.09
2019-03-13T17:35:29.885Z,94614.41
2019-03-13T17:37:59.435Z,94613.09
2019-03-13T17:40:28.947Z,94610.48
2019-03-13T17:42:58.472Z,94608.93
2019-03-13T17:45:28.025Z,94608.88
2019-03-13T17:47:57.681Z,94614.42
2019-03-13T17:50:27.285Z,94610.23
2019-03-13T17:52:56.886Z,94614.31
2019-03-13T17:55:26.432Z,94607.98
2019-03-13T17:57:55.975Z,94618.27
2019-03-13T18:00:29.496Z,94613.83
2019-03-13T18:02:59.139Z,94621.30
2019-03-13T18:05:28.638Z,94623.09
2019-03-13T18:07:58.101Z,94626.06
2019-03-13T18:10:27.581Z,94618.42
2019-03-13T18:12:57.105Z,94625.27
2019-03-13T18:15:28.844Z,94624.45
2019-03-13T18:17:58.496Z,94629.98
2019-03-13T18:20:28.141Z,94618.77
2019-03-13T18:22:57.661Z,94612.32
2019-03-13T18:25:27.230Z,94614.71
2019-03-13T18:27:56.759Z,94604.84
2019-03-13T18:30:26.297Z,94611.67
2019-03-13T18:32:55.802Z,94610.42
2019-03-13T18:35:25.334Z,94602.63
2019-03-13T18:37:54.811Z,94606.53
2019-03-13T18:40:24.462Z,94613.03
2019-03-13T18:42:54.103Z,94609.35
2019-03-13T18:45:24.808Z,94613.73
2019-03-13T18:47:55.538Z,94618.66
2019-03-13T18:50:25.205Z,94617.64
2019-03-13T18:52:55.099Z,94623.20
2019-03-13T18:55:24.640Z,94612.97
2019-03-13T18:57:54.266Z,94621.21
2019-03-13T19:00:28.587Z,94623.81
2019-03-13T19:02:58.208Z,94624.13
2019-03-13T19:05:28.207Z,94621.57
2019-03-13T19:07:57.715Z,94627.05
2019-03-13T19:10:27.399Z,94621.70
2019-03-13T19:12:57.203Z,94624.17
2019-03-13T19:15:26.762Z,94609.69
2019-03-13T19:17:56.302Z,94611.36
2019-03-13T19:20:25.908Z,94615.69
2019-03-13T19:22:55.463Z,94617.64
2019-03-13T19:25:25.098Z,94616.49
2019-03-13T19:27:54.728Z,94620.59
2019-03-13T19:30:26.232Z,94624.13
2019-03-13T19:32:56.816Z,94627.37
2019-03-13T19:35:26.377Z,94626.23
2019-03-13T19:37:56.219Z,94623.77
2019-03-13T19:40:25.737Z,94627.86
2019-03-13T19:42:55.242Z,94634.16
2019-03-13T19:45:33.438Z,94636.48
2019-03-13T19:48:02.948Z,94633.98
2019-03-13T19:50:32.451Z,94627.05
2019-03-13T19:53:01.919Z,94634.52
2019-03-13T19:55:31.463Z,94632.91
2019-03-13T19:58:01.114Z,94634.25
2019-03-13T20:00:30.661Z,94627.75
2019-03-13T20:03:00.977Z,94633.44
2019-03-13T20:05:30.599Z,94623.41
2019-03-13T20:08:00.111Z,94628.28
2019-03-13T20:10:29.615Z,94623.57
2019-03-13T20:12:59.368Z,94624.55
2019-03-13T20:15:28.869Z,94618.05
2019-03-13T20:17:58.464Z,94611.72
2019-03-13T20:20:28.055Z,94609.95
2019-03-13T20:22:58.779Z,94606.04
2019-03-13T20:25:28.313Z,94594.55
2019-03-13T20:27:57.828Z,94594.03
2019-03-13T20:30:27.489Z,94587.54
2019-03-13T20:32:57.079Z,94591.80
2019-03-13T20:35:26.547Z,94588.84
2019-03-13T20:37:56.115Z,94584.66
2019-03-13T20:40:25.758Z,94593.75
2019-03-13T20:42:55.304Z,94595.53
2019-03-13T20:45:24.853Z,94590.51
2019-03-13T20:47:54.561Z,94602.20
2019-03-13T20:50:35.899Z,94605.28
2019-03-13T20:52:55.634Z,94605.77
2019-03-13T20:55:25.236Z,94606.73
2019-03-13T20:57:54.708Z,94607.02
2019-03-13T21:00:24.542Z,94592.52
2019-03-13T21:02:54.243Z,94601.66
2019-03-13T21:05:24.031Z,94595.45
2019-03-13T21:07:53.759Z,94581.03
2019-03-13T21:10:23.361Z,94583.80
2019-03-13T21:12:52.946Z,94581.05
2019-03-13T21:15:22.528Z,94577.67
2019-03-13T21:17:52.133Z,94587.54
2019-03-13T21:20:22.262Z,94583.80
2019-03-13T21:22:51.732Z,94583.69
2019-03-13T21:25:21.609Z,94576.87
2019-03-13T21:27:51.119Z,94568.88
2019-03-13T21:30:22.359Z,94568.42
2019-03-13T21:32:51.876Z,94572.00
2019-03-13T21:35:21.443Z,94571.39
2019-03-13T21:37:51.398Z,94565.87
2019-03-13T21:40:20.930Z,94576.27
2019-03-13T21:42:53.995Z,94589.08
2019-03-13T21:45:23.155Z,94591.20
2019-03-13T21:47:52.904Z,94597.36
2019-03-13T21:50:23.131Z,94588.19
2019-03-13T21:52:52.697Z,94585.59
2019-03-13T21:55:22.207Z,94586.08
2019-03-13T21:57:52.485Z,94578.28
2019-03-13T22:00:24.134Z,94589.00
2019-03-13T22:02:54.144Z,94579.05
2019-03-13T22:05:26.643Z,94570.75
2019-03-13T22:07:54.960Z,94569.29
2019-03-13T22:10:24.552Z,94569.41
2019-03-13T22:12:54.062Z,94572.47
2019-03-13T22:15:23.684Z,94570.36
2019-03-13T22:17:53.195Z,94565.83
2019-03-13T22:20:22.761Z,94568.09
2019-03-13T22:22:52.262Z,94565.17
2019-03-13T22:25:21.799Z,94572.55
2019-03-13T22:27:51.309Z,94575.96
2019-03-13T22:30:21.237Z,94569.34
2019-03-13T22:32:50.707Z,94575.64
2019-03-13T22:35:20.330Z,94570.27
2019-03-13T22:37:49.814Z,94577.42
2019-03-13T22:40:20.558Z,94569.34
2019-03-13T22:42:50.067Z,94559.94
2019-03-13T22:45:19.653Z,94555.05
2019-03-13T22:47:49.174Z,94555.64
2019-03-13T22:50:18.948Z,94561.83
2019-03-13T22:52:48.452Z,94561.50
2019-03-13T22:55:17.978Z,94569.63
2019-03-13T22:57:47.581Z,94565.73
2019-03-13T23:01:06.043Z,94561.06
2019-03-13T23:03:35.547Z,94551.82
2019-03-13T23:06:05.085Z,94562.42
2019-03-13T23:08:34.571Z,94565.83
2019-03-13T23:11:04.205Z,94568.15
2019-03-13T23:13:33.713Z,94567.30
2019-03-13T23:16:03.167Z,94564.90
2019-03-13T23:18:32.691Z,94570.75
2019-03-13T23:21:02.213Z,94565.27
2019-03-13T23:23:31.694Z,94559.77
2019-03-13T23:26:01.230Z,94562.68
2019-03-13T23:28:30.699Z,94563.00
2019-03-13T23:31:00.265Z,94559.76
2019-03-13T23:33:29.775Z,94555.20
2019-03-13T23:35:59.338Z,94544.34
2019-03-13T23:38:28.838Z,94542.56
2019-03-13T23:40:58.699Z,94545.97
2019-03-13T23:43:28.583Z,94548.44
2019-03-13T23:45:58.158Z,94548.77
2019-03-13T23:48:27.668Z,94549.38
2019-03-13T23:53:14.720Z,94538.45
2019-03-13T23:55:44.229Z,94544.62
2019-03-13T23:58:13.777Z,94553.22
